MDJB

La Isabela International Airport

Airport
ICAO code
MDJB
IATA Code
JBQ
Summary
ICAO Region
CARSAM
ICAO Territory
Location

Vertedero La Isabela, Dominican Republic

Serving
Santo Domingo
Elevation
30 ft
Coordinates
18° 34' 33" N , 69° 58' 55" W
KCC
Airport WX
Tropical Revolving Storm
Metar
Observation
MDJB 011300Z 36008KT 9999 SCT016 23/20 Q1019
Station
DR BALAGUER INTL
Date/Time
2023-02-01 14:00:00
Wind direction
360°
Wind speed
08 kts
Lowest cloud amount
scattered clouds
Temperature
23°C
Dew point
20°C
Humidity
83%
QNH
1019 hPa
Weather condition
n/a

International airport serving the city of Santo Domingo, Dominican Republic.

Climatology

Tropical savannah climate (Köppen climate classification Aw)

Runways

Designator Length Width Surface Rops
1/19 1650 30 ASP No/No

Airport map

Aerial View

SKYbrary Partners:

Safety knowledge contributed by: